sensor_id;sensor_type;location;lat;lon;timestamp;pressure;altitude;pressure_sealevel;temperature;humidity
41596;BME280;27283;52.504;13.358;2023-03-08T00:00:46;99399.91;;;0.35;91.95
41596;BME280;27283;52.504;13.358;2023-03-08T00:03:19;99411.63;;;0.11;92.97
41596;BME280;27283;52.504;13.358;2023-03-08T00:05:52;99421.63;;;0.08;93.53
41596;BME280;27283;52.504;13.358;2023-03-08T00:08:26;99416.50;;;-0.15;93.93
41596;BME280;27283;52.504;13.358;2023-03-08T00:10:57;99424.47;;;-0.05;94.20
41596;BME280;27283;52.504;13.358;2023-03-08T00:13:29;99420.06;;;0.05;94.10
41596;BME280;27283;52.504;13.358;2023-03-08T00:16:03;99425.16;;;-0.03;94.49
41596;BME280;27283;52.504;13.358;2023-03-08T00:18:36;99427.94;;;-0.05;94.29
41596;BME280;27283;52.504;13.358;2023-03-08T00:21:11;99435.69;;;-0.13;94.71
41596;BME280;27283;52.504;13.358;2023-03-08T00:23:45;99435.84;;;-0.26;94.95
41596;BME280;27283;52.504;13.358;2023-03-08T00:26:16;99436.78;;;-0.15;94.92
41596;BME280;27283;52.504;13.358;2023-03-08T00:28:48;99438.16;;;-0.21;95.10
41596;BME280;27283;52.504;13.358;2023-03-08T00:31:20;99445.06;;;0.01;94.35
41596;BME280;27283;52.504;13.358;2023-03-08T00:33:52;99447.06;;;-0.12;94.99
41596;BME280;27283;52.504;13.358;2023-03-08T00:36:27;99442.00;;;-0.04;94.47
41596;BME280;27283;52.504;13.358;2023-03-08T00:38:59;99442.25;;;0.14;93.72
41596;BME280;27283;52.504;13.358;2023-03-08T00:41:30;99442.53;;;-0.10;94.06
41596;BME280;27283;52.504;13.358;2023-03-08T00:44:03;99445.09;;;-0.20;95.33
41596;BME280;27283;52.504;13.358;2023-03-08T00:46:34;99443.88;;;-0.16;95.04
41596;BME280;27283;52.504;13.358;2023-03-08T00:49:06;99449.97;;;-0.37;96.36
41596;BME280;27283;52.504;13.358;2023-03-08T00:51:40;99454.69;;;-0.19;95.78
41596;BME280;27283;52.504;13.358;2023-03-08T00:54:12;99453.66;;;-0.07;95.04
41596;BME280;27283;52.504;13.358;2023-03-08T00:56:43;99450.06;;;-0.27;95.46
41596;BME280;27283;52.504;13.358;2023-03-08T00:59:15;99448.59;;;-0.20;95.86
41596;BME280;27283;52.504;13.358;2023-03-08T01:01:46;99453.84;;;-0.41;97.35
41596;BME280;27283;52.504;13.358;2023-03-08T01:04:18;99454.25;;;-0.45;97.27
41596;BME280;27283;52.504;13.358;2023-03-08T01:06:52;99455.50;;;-0.40;97.16
41596;BME280;27283;52.504;13.358;2023-03-08T01:09:24;99457.72;;;-0.24;96.36
41596;BME280;27283;52.504;13.358;2023-03-08T01:11:55;99462.72;;;-0.42;96.85
41596;BME280;27283;52.504;13.358;2023-03-08T01:14:30;99468.06;;;-0.32;96.58
41596;BME280;27283;52.504;13.358;2023-03-08T01:17:01;99471.97;;;-0.36;96.79
41596;BME280;27283;52.504;13.358;2023-03-08T01:19:33;99478.97;;;-0.46;97.50
41596;BME280;27283;52.504;13.358;2023-03-08T01:22:07;99466.06;;;-0.40;97.49
41596;BME280;27283;52.504;13.358;2023-03-08T01:24:43;99477.88;;;-0.44;97.86
41596;BME280;27283;52.504;13.358;2023-03-08T01:27:15;99472.06;;;-0.59;98.43
41596;BME280;27283;52.504;13.358;2023-03-08T01:29:48;99479.63;;;-0.33;98.02
41596;BME280;27283;52.504;13.358;2023-03-08T01:32:19;99477.84;;;-0.65;99.76
41596;BME280;27283;52.504;13.358;2023-03-08T01:34:51;99476.16;;;-0.66;100.00
41596;BME280;27283;52.504;13.358;2023-03-08T01:37:26;99471.66;;;-0.54;99.67
41596;BME280;27283;52.504;13.358;2023-03-08T01:39:57;99475.38;;;-0.57;99.90
41596;BME280;27283;52.504;13.358;2023-03-08T01:42:29;99479.53;;;-0.43;99.02
41596;BME280;27283;52.504;13.358;2023-03-08T01:45:02;99467.50;;;-0.36;98.63
41596;BME280;27283;52.504;13.358;2023-03-08T01:47:34;99481.16;;;-0.30;98.08
41596;BME280;27283;52.504;13.358;2023-03-08T01:50:09;99477.94;;;-0.34;97.79
41596;BME280;27283;52.504;13.358;2023-03-08T01:52:48;99492.09;;;-0.35;98.22
41596;BME280;27283;52.504;13.358;2023-03-08T01:55:21;99481.16;;;-0.30;98.08
41596;BME280;27283;52.504;13.358;2023-03-08T01:57:54;99485.13;;;-0.57;99.58
41596;BME280;27283;52.504;13.358;2023-03-08T02:00:26;99485.69;;;-0.86;100.00
41596;BME280;27283;52.504;13.358;2023-03-08T02:03:00;99482.38;;;-0.67;100.00
41596;BME280;27283;52.504;13.358;2023-03-08T02:05:32;99482.31;;;-0.77;100.00
41596;BME280;27283;52.504;13.358;2023-03-08T02:08:09;99483.19;;;-0.55;100.00
41596;BME280;27283;52.504;13.358;2023-03-08T02:10:41;99486.50;;;-0.42;100.00
41596;BME280;27283;52.504;13.358;2023-03-08T02:13:13;99486.81;;;-0.35;99.59
41596;BME280;27283;52.504;13.358;2023-03-08T02:15:45;99487.47;;;-0.75;100.00
41596;BME280;27283;52.504;13.358;2023-03-08T02:18:17;99482.09;;;-0.52;100.00
41596;BME280;27283;52.504;13.358;2023-03-08T02:20:49;99488.59;;;-0.89;100.00
41596;BME280;27283;52.504;13.358;2023-03-08T02:23:24;99483.44;;;-0.91;100.00
41596;BME280;27283;52.504;13.358;2023-03-08T02:25:58;99483.13;;;-0.65;100.00
41596;BME280;27283;52.504;13.358;2023-03-08T02:28:31;99480.00;;;-0.70;100.00
41596;BME280;27283;52.504;13.358;2023-03-08T02:31:04;99481.38;;;-0.55;100.00
41596;BME280;27283;52.504;13.358;2023-03-08T02:33:35;99486.59;;;-0.76;100.00
41596;BME280;27283;52.504;13.358;2023-03-08T02:36:07;99494.78;;;-0.79;100.00
41596;BME280;27283;52.504;13.358;2023-03-08T02:38:42;99497.16;;;-0.64;100.00
41596;BME280;27283;52.504;13.358;2023-03-08T02:41:13;99505.06;;;-0.76;100.00
41596;BME280;27283;52.504;13.358;2023-03-08T02:43:45;99502.81;;;-0.80;100.00
41596;BME280;27283;52.504;13.358;2023-03-08T02:46:16;99502.31;;;-0.63;100.00
41596;BME280;27283;52.504;13.358;2023-03-08T02:48:48;99500.91;;;-0.90;100.00
41596;BME280;27283;52.504;13.358;2023-03-08T02:51:20;99508.56;;;-0.75;100.00
41596;BME280;27283;52.504;13.358;2023-03-08T02:53:55;99501.03;;;-0.80;100.00
41596;BME280;27283;52.504;13.358;2023-03-08T02:56:26;99501.72;;;-0.66;100.00
41596;BME280;27283;52.504;13.358;2023-03-08T02:58:57;99495.22;;;-0.62;100.00
41596;BME280;27283;52.504;13.358;2023-03-08T03:01:29;99491.06;;;-0.76;100.00
41596;BME280;27283;52.504;13.358;2023-03-08T03:04:00;99493.94;;;-0.68;100.00
41596;BME280;27283;52.504;13.358;2023-03-08T03:06:32;99497.94;;;-0.52;100.00
41596;BME280;27283;52.504;13.358;2023-03-08T03:09:08;99493.47;;;-0.84;100.00
41596;BME280;27283;52.504;13.358;2023-03-08T03:11:40;99505.75;;;-0.95;100.00
41596;BME280;27283;52.504;13.358;2023-03-08T03:14:12;99499.97;;;-0.88;100.00
41596;BME280;27283;52.504;13.358;2023-03-08T03:16:44;99499.59;;;-0.95;100.00
41596;BME280;27283;52.504;13.358;2023-03-08T03:19:15;99510.16;;;-0.95;100.00
41596;BME280;27283;52.504;13.358;2023-03-08T03:21:47;99505.50;;;-0.92;100.00
41596;BME280;27283;52.504;13.358;2023-03-08T03:24:21;99505.00;;;-0.97;100.00
41596;BME280;27283;52.504;13.358;2023-03-08T03:26:53;99496.38;;;-0.87;100.00
41596;BME280;27283;52.504;13.358;2023-03-08T03:29:24;99498.97;;;-0.65;100.00
41596;BME280;27283;52.504;13.358;2023-03-08T03:31:56;99496.50;;;-1.00;100.00
41596;BME280;27283;52.504;13.358;2023-03-08T03:34:27;99509.41;;;-0.75;100.00
41596;BME280;27283;52.504;13.358;2023-03-08T03:37:00;99510.97;;;-0.72;100.00
41596;BME280;27283;52.504;13.358;2023-03-08T03:39:38;99515.38;;;-0.73;100.00
41596;BME280;27283;52.504;13.358;2023-03-08T03:42:10;99524.41;;;-0.86;100.00
41596;BME280;27283;52.504;13.358;2023-03-08T03:44:41;99529.38;;;-0.93;100.00
41596;BME280;27283;52.504;13.358;2023-03-08T03:47:13;99527.31;;;-0.78;100.00
41596;BME280;27283;52.504;13.358;2023-03-08T03:49:45;99531.91;;;-0.59;100.00
41596;BME280;27283;52.504;13.358;2023-03-08T03:52:17;99536.56;;;-0.51;100.00
41596;BME280;27283;52.504;13.358;2023-03-08T03:54:50;99536.19;;;-0.47;100.00
41596;BME280;27283;52.504;13.358;2023-03-08T03:57:23;99533.09;;;-0.52;100.00
41596;BME280;27283;52.504;13.358;2023-03-08T03:59:55;99544.03;;;-0.45;100.00
41596;BME280;27283;52.504;13.358;2023-03-08T04:02:27;99544.03;;;-0.57;100.00
41596;BME280;27283;52.504;13.358;2023-03-08T04:04:59;99548.94;;;-0.41;100.00
41596;BME280;27283;52.504;13.358;2023-03-08T04:07:32;99556.66;;;-0.72;100.00
41596;BME280;27283;52.504;13.358;2023-03-08T04:10:07;99548.81;;;-0.39;100.00
41596;BME280;27283;52.504;13.358;2023-03-08T04:12:39;99545.63;;;-0.65;99.40
41596;BME280;27283;52.504;13.358;2023-03-08T04:15:11;99549.69;;;-0.61;99.91
41596;BME280;27283;52.504;13.358;2023-03-08T04:17:43;99554.66;;;-0.36;98.54
41596;BME280;27283;52.504;13.358;2023-03-08T04:20:15;99549.94;;;-0.64;99.55
41596;BME280;27283;52.504;13.358;2023-03-08T04:22:47;99558.56;;;-0.62;99.65
41596;BME280;27283;52.504;13.358;2023-03-08T04:25:21;99555.19;;;-0.53;99.33
41596;BME280;27283;52.504;13.358;2023-03-08T04:27:53;99552.09;;;-0.69;99.47
41596;BME280;27283;52.504;13.358;2023-03-08T04:30:25;99558.13;;;-0.79;100.00
41596;BME280;27283;52.504;13.358;2023-03-08T04:32:57;99560.88;;;-0.69;100.00
41596;BME280;27283;52.504;13.358;2023-03-08T04:35:32;99557.16;;;-0.78;100.00
41596;BME280;27283;52.504;13.358;2023-03-08T04:38:05;99560.00;;;-0.69;100.00
41596;BME280;27283;52.504;13.358;2023-03-08T04:40:46;99556.34;;;-0.78;99.50
41596;BME280;27283;52.504;13.358;2023-03-08T04:43:33;99547.44;;;-0.66;99.33
41596;BME280;27283;52.504;13.358;2023-03-08T04:46:06;99554.97;;;-0.61;98.73
41596;BME280;27283;52.504;13.358;2023-03-08T04:48:39;99552.34;;;-0.61;97.92
41596;BME280;27283;52.504;13.358;2023-03-08T04:51:12;99544.94;;;-1.01;99.90
41596;BME280;27283;52.504;13.358;2023-03-08T04:53:45;99542.78;;;-1.08;100.00
41596;BME280;27283;52.504;13.358;2023-03-08T04:56:21;99549.88;;;-1.08;100.00
41596;BME280;27283;52.504;13.358;2023-03-08T04:58:53;99550.22;;;-1.01;100.00
41596;BME280;27283;52.504;13.358;2023-03-08T05:01:26;99547.94;;;-0.83;99.24
41596;BME280;27283;52.504;13.358;2023-03-08T05:03:58;99548.06;;;-0.74;98.94
41596;BME280;27283;52.504;13.358;2023-03-08T05:06:30;99546.94;;;-0.71;98.03
41596;BME280;27283;52.504;13.358;2023-03-08T05:09:03;99543.13;;;-0.78;97.67
41596;BME280;27283;52.504;13.358;2023-03-08T05:11:38;99549.25;;;-0.78;97.57
41596;BME280;27283;52.504;13.358;2023-03-08T05:14:10;99553.59;;;-0.99;98.26
41596;BME280;27283;52.504;13.358;2023-03-08T05:16:42;99548.19;;;-0.86;98.11
41596;BME280;27283;52.504;13.358;2023-03-08T05:19:14;99544.81;;;-0.88;97.73
41596;BME280;27283;52.504;13.358;2023-03-08T05:21:46;99546.84;;;-0.81;97.05
41596;BME280;27283;52.504;13.358;2023-03-08T05:24:18;99554.78;;;-0.81;97.17
41596;BME280;27283;52.504;13.358;2023-03-08T05:26:53;99552.25;;;-0.82;97.08
41596;BME280;27283;52.504;13.358;2023-03-08T05:29:26;99560.88;;;-0.80;96.89
41596;BME280;27283;52.504;13.358;2023-03-08T05:31:58;99562.69;;;-0.81;96.81
41596;BME280;27283;52.504;13.358;2023-03-08T05:34:30;99570.59;;;-0.81;96.80
41596;BME280;27283;52.504;13.358;2023-03-08T05:37:02;99570.84;;;-0.84;96.65
41596;BME280;27283;52.504;13.358;2023-03-08T05:39:34;99568.34;;;-0.85;97.00
41596;BME280;27283;52.504;13.358;2023-03-08T05:42:09;99569.28;;;-0.86;96.93
41596;BME280;27283;52.504;13.358;2023-03-08T05:44:41;99574.81;;;-0.90;97.42
41596;BME280;27283;52.504;13.358;2023-03-08T05:47:13;99569.53;;;-0.90;97.62
41596;BME280;27283;52.504;13.358;2023-03-08T05:49:45;99573.13;;;-1.02;98.57
41596;BME280;27283;52.504;13.358;2023-03-08T05:52:17;99573.72;;;-0.87;98.26
41596;BME280;27283;52.504;13.358;2023-03-08T05:55:07;99579.72;;;-0.74;97.65
41596;BME280;27283;52.504;13.358;2023-03-08T05:57:41;99578.66;;;-0.82;98.12
41596;BME280;27283;52.504;13.358;2023-03-08T06:00:14;99577.22;;;-0.75;98.24
41596;BME280;27283;52.504;13.358;2023-03-08T06:02:47;99581.38;;;-0.73;98.29
41596;BME280;27283;52.504;13.358;2023-03-08T06:05:19;99578.75;;;-0.61;97.59
41596;BME280;27283;52.504;13.358;2023-03-08T06:07:50;99579.06;;;-0.55;97.30
41596;BME280;27283;52.504;13.358;2023-03-08T06:10:22;99582.06;;;-0.48;96.99
41596;BME280;27283;52.504;13.358;2023-03-08T06:12:56;99580.88;;;-0.44;96.54
41596;BME280;27283;52.504;13.358;2023-03-08T06:15:30;99584.09;;;-0.40;96.79
41596;BME280;27283;52.504;13.358;2023-03-08T06:18:03;99585.66;;;-0.38;96.43
41596;BME280;27283;52.504;13.358;2023-03-08T06:20:34;99591.19;;;-0.41;96.83
41596;BME280;27283;52.504;13.358;2023-03-08T06:23:06;99593.22;;;-0.33;96.30
41596;BME280;27283;52.504;13.358;2023-03-08T06:25:42;99591.38;;;-0.21;95.82
41596;BME280;27283;52.504;13.358;2023-03-08T06:28:17;99591.38;;;-0.21;95.63
41596;BME280;27283;52.504;13.358;2023-03-08T06:30:49;99589.75;;;-0.12;95.01
41596;BME280;27283;52.504;13.358;2023-03-08T06:33:24;99600.69;;;-0.06;94.55
41596;BME280;27283;52.504;13.358;2023-03-08T06:35:57;99602.81;;;0.01;94.17
41596;BME280;27283;52.504;13.358;2023-03-08T06:38:31;99592.19;;;0.12;93.73
41596;BME280;27283;52.504;13.358;2023-03-08T06:41:04;99595.84;;;-0.01;93.98
41596;BME280;27283;52.504;13.358;2023-03-08T06:43:39;99595.41;;;-0.06;94.04
41596;BME280;27283;52.504;13.358;2023-03-08T06:46:12;99596.69;;;0.00;94.35
41596;BME280;27283;52.504;13.358;2023-03-08T06:48:45;99593.03;;;0.12;94.09
41596;BME280;27283;52.504;13.358;2023-03-08T06:51:18;99586.25;;;0.20;93.99
41596;BME280;27283;52.504;13.358;2023-03-08T06:53:49;99595.97;;;0.30;92.85
41596;BME280;27283;52.504;13.358;2023-03-08T06:56:21;99584.00;;;0.36;92.16
41596;BME280;27283;52.504;13.358;2023-03-08T06:58:56;99587.81;;;0.43;92.72
41596;BME280;27283;52.504;13.358;2023-03-08T07:01:28;99590.19;;;0.46;92.55
41596;BME280;27283;52.504;13.358;2023-03-08T07:03:59;99582.78;;;0.40;92.33
41596;BME280;27283;52.504;13.358;2023-03-08T07:06:32;99576.66;;;0.40;92.07
41596;BME280;27283;52.504;13.358;2023-03-08T07:09:04;99586.34;;;0.50;92.10
41596;BME280;27283;52.504;13.358;2023-03-08T07:11:35;99585.03;;;0.45;91.28
41596;BME280;27283;52.504;13.358;2023-03-08T07:14:11;99580.25;;;0.60;90.63
41596;BME280;27283;52.504;13.358;2023-03-08T07:16:43;99581.78;;;0.83;90.24
41596;BME280;27283;52.504;13.358;2023-03-08T07:19:15;99586.44;;;1.01;89.57
41596;BME280;27283;52.504;13.358;2023-03-08T07:21:47;99585.31;;;0.94;89.37
41596;BME280;27283;52.504;13.358;2023-03-08T07:24:19;99596.06;;;1.02;88.90
41596;BME280;27283;52.504;13.358;2023-03-08T07:26:52;99582.69;;;0.94;89.32
41596;BME280;27283;52.504;13.358;2023-03-08T07:29:26;99580.47;;;0.99;89.20
41596;BME280;27283;52.504;13.358;2023-03-08T07:31:58;99584.00;;;1.09;88.94
41596;BME280;27283;52.504;13.358;2023-03-08T07:34:29;99587.19;;;1.13;88.00
41596;BME280;27283;52.504;13.358;2023-03-08T07:37:03;99586.03;;;1.05;88.76
41596;BME280;27283;52.504;13.358;2023-03-08T07:39:34;99592.88;;;0.98;88.22
41596;BME280;27283;52.504;13.358;2023-03-08T07:42:07;99596.59;;;0.96;88.09
41596;BME280;27283;52.504;13.358;2023-03-08T07:44:41;99596.63;;;1.05;87.92
41596;BME280;27283;52.504;13.358;2023-03-08T07:47:13;99596.78;;;1.04;87.47
41596;BME280;27283;52.504;13.358;2023-03-08T07:49:45;99594.09;;;1.35;86.84
41596;BME280;27283;52.504;13.358;2023-03-08T07:52:17;99595.94;;;1.44;86.91
41596;BME280;27283;52.504;13.358;2023-03-08T07:54:51;99602.19;;;1.33;86.73
41596;BME280;27283;52.504;13.358;2023-03-08T07:57:23;99593.84;;;1.48;86.23
41596;BME280;27283;52.504;13.358;2023-03-08T09:40:24;99528.94;;;4.59;60.70
41596;BME280;27283;52.504;13.358;2023-03-08T09:43:04;99532.91;;;4.55;63.41
41596;BME280;27283;52.504;13.358;2023-03-08T09:45:37;99531.22;;;4.54;66.18
41596;BME280;27283;52.504;13.358;2023-03-08T09:48:13;99538.53;;;4.78;60.73
41596;BME280;27283;52.504;13.358;2023-03-08T09:50:50;99538.41;;;4.61;59.62
41596;BME280;27283;52.504;13.358;2023-03-08T09:53:28;99523.25;;;4.28;59.83
41596;BME280;27283;52.504;13.358;2023-03-08T09:56:14;99523.78;;;3.41;62.37
41596;BME280;27283;52.504;13.358;2023-03-08T09:58:53;99512.34;;;3.95;63.19
41596;BME280;27283;52.504;13.358;2023-03-08T10:01:37;99510.63;;;4.12;64.58
41596;BME280;27283;52.504;13.358;2023-03-08T10:04:31;99513.25;;;4.56;61.46
41596;BME280;27283;52.504;13.358;2023-03-08T10:07:13;99507.47;;;4.34;61.68
41596;BME280;27283;52.504;13.358;2023-03-08T10:09:55;99510.38;;;4.41;61.14
41596;BME280;27283;52.504;13.358;2023-03-08T10:12:43;99507.84;;;4.66;62.45
41596;BME280;27283;52.504;13.358;2023-03-08T10:15:22;99506.91;;;4.49;58.40
41596;BME280;27283;52.504;13.358;2023-03-08T10:17:58;99504.81;;;4.34;59.04
41596;BME280;27283;52.504;13.358;2023-03-08T10:20:34;99505.34;;;4.38;58.75
41596;BME280;27283;52.504;13.358;2023-03-08T10:23:12;99498.13;;;4.30;59.43
41596;BME280;27283;52.504;13.358;2023-03-08T10:25:47;99502.31;;;4.33;59.82
41596;BME280;27283;52.504;13.358;2023-03-08T10:28:23;99493.88;;;3.39;59.90
41596;BME280;27283;52.504;13.358;2023-03-08T10:31:00;99495.91;;;3.99;61.66
41596;BME280;27283;52.504;13.358;2023-03-08T10:33:34;99496.72;;;4.18;59.50
41596;BME280;27283;52.504;13.358;2023-03-08T10:36:16;99489.44;;;4.20;59.84
41596;BME280;27283;52.504;13.358;2023-03-08T10:39:04;99490.47;;;4.53;62.68
41596;BME280;27283;52.504;13.358;2023-03-08T10:41:40;99487.72;;;4.71;58.54
41596;BME280;27283;52.504;13.358;2023-03-08T10:44:31;99489.34;;;4.64;58.39
41596;BME280;27283;52.504;13.358;2023-03-08T10:47:19;99484.41;;;4.17;59.89
41596;BME280;27283;52.504;13.358;2023-03-08T10:50:10;99480.22;;;4.40;61.71
41596;BME280;27283;52.504;13.358;2023-03-08T10:52:46;99473.53;;;4.63;63.67
41596;BME280;27283;52.504;13.358;2023-03-08T10:55:21;99467.94;;;5.25;58.60
41596;BME280;27283;52.504;13.358;2023-03-08T10:57:56;99460.66;;;5.52;57.29
41596;BME280;27283;52.504;13.358;2023-03-08T11:00:36;99461.16;;;5.47;57.41
41596;BME280;27283;52.504;13.358;2023-03-08T11:03:14;99457.81;;;5.37;60.20
41596;BME280;27283;52.504;13.358;2023-03-08T11:05:52;99448.50;;;5.57;56.18
41596;BME280;27283;52.504;13.358;2023-03-08T11:08:27;99451.84;;;5.59;57.00
41596;BME280;27283;52.504;13.358;2023-03-08T11:11:06;99454.97;;;5.30;56.27
41596;BME280;27283;52.504;13.358;2023-03-08T11:13:41;99444.78;;;5.17;57.65
41596;BME280;27283;52.504;13.358;2023-03-08T11:16:35;99451.44;;;4.70;58.85
41596;BME280;27283;52.504;13.358;2023-03-08T11:19:19;99445.03;;;4.97;58.47
41596;BME280;27283;52.504;13.358;2023-03-08T11:22:01;99440.69;;;4.88;60.06
41596;BME280;27283;52.504;13.358;2023-03-08T11:24:48;99432.03;;;4.86;59.88
41596;BME280;27283;52.504;13.358;2023-03-08T11:27:33;99429.81;;;4.73;58.89
41596;BME280;27283;52.504;13.358;2023-03-08T11:30:16;99412.22;;;4.89;57.98
41596;BME280;27283;52.504;13.358;2023-03-08T11:33:13;99409.47;;;5.15;58.48
41596;BME280;27283;52.504;13.358;2023-03-08T11:35:54;99399.06;;;4.87;58.60
41596;BME280;27283;52.504;13.358;2023-03-08T11:38:30;99400.94;;;5.11;56.75
41596;BME280;27283;52.504;13.358;2023-03-08T11:41:15;99394.34;;;5.48;55.62
41596;BME280;27283;52.504;13.358;2023-03-08T11:44:19;99394.31;;;5.57;55.02
41596;BME280;27283;52.504;13.358;2023-03-08T11:47:09;99399.50;;;5.75;53.03
41596;BME280;27283;52.504;13.358;2023-03-08T11:49:59;99388.16;;;5.73;51.13
41596;BME280;27283;52.504;13.358;2023-03-08T11:52:42;99386.97;;;5.92;51.03
41596;BME280;27283;52.504;13.358;2023-03-08T11:55:38;99385.66;;;6.04;50.22
41596;BME280;27283;52.504;13.358;2023-03-08T11:58:19;99368.97;;;6.02;49.46
41596;BME280;27283;52.504;13.358;2023-03-08T12:00:59;99373.66;;;5.67;49.73
41596;BME280;27283;52.504;13.358;2023-03-08T12:03:35;99374.81;;;5.64;50.96
41596;BME280;27283;52.504;13.358;2023-03-08T12:06:19;99373.84;;;5.65;52.15
41596;BME280;27283;52.504;13.358;2023-03-08T12:09:03;99359.47;;;5.75;52.02
41596;BME280;27283;52.504;13.358;2023-03-08T12:11:40;99362.16;;;5.75;54.16
41596;BME280;27283;52.504;13.358;2023-03-08T12:14:18;99354.50;;;5.63;54.57
41596;BME280;27283;52.504;13.358;2023-03-08T12:17:00;99350.31;;;5.77;54.63
41596;BME280;27283;52.504;13.358;2023-03-08T12:19:40;99355.47;;;5.79;55.94
41596;BME280;27283;52.504;13.358;2023-03-08T12:22:35;99354.16;;;5.75;54.52
41596;BME280;27283;52.504;13.358;2023-03-08T12:25:21;99343.34;;;5.43;55.16
41596;BME280;27283;52.504;13.358;2023-03-08T12:27:58;99341.94;;;5.89;53.68
41596;BME280;27283;52.504;13.358;2023-03-08T12:30:41;99339.44;;;5.95;52.32
41596;BME280;27283;52.504;13.358;2023-03-08T12:33:15;99332.44;;;5.94;51.48
41596;BME280;27283;52.504;13.358;2023-03-08T12:35:51;99338.63;;;6.03;52.04
41596;BME280;27283;52.504;13.358;2023-03-08T12:38:33;99332.78;;;5.91;52.00
41596;BME280;27283;52.504;13.358;2023-03-08T12:41:21;99336.09;;;5.93;52.48
41596;BME280;27283;52.504;13.358;2023-03-08T12:44:02;99329.75;;;6.11;50.47
41596;BME280;27283;52.504;13.358;2023-03-08T12:46:49;99328.28;;;5.92;50.72
41596;BME280;27283;52.504;13.358;2023-03-08T12:49:34;99333.81;;;5.82;51.34
41596;BME280;27283;52.504;13.358;2023-03-08T12:52:25;99322.81;;;5.68;51.26
41596;BME280;27283;52.504;13.358;2023-03-08T12:55:21;99317.53;;;5.44;51.67
41596;BME280;27283;52.504;13.358;2023-03-08T12:58:15;99317.34;;;5.21;53.79
41596;BME280;27283;52.504;13.358;2023-03-08T13:00:57;99316.22;;;5.15;54.42
41596;BME280;27283;52.504;13.358;2023-03-08T13:03:37;99322.03;;;4.94;56.80
41596;BME280;27283;52.504;13.358;2023-03-08T13:06:41;99319.81;;;4.81;57.60
41596;BME280;27283;52.504;13.358;2023-03-08T13:09:21;99315.19;;;5.08;54.75
41596;BME280;27283;52.504;13.358;2023-03-08T13:12:17;99321.84;;;5.20;55.06
41596;BME280;27283;52.504;13.358;2023-03-08T13:15:01;99322.50;;;5.22;54.04
41596;BME280;27283;52.504;13.358;2023-03-08T13:17:46;99321.19;;;5.26;53.84
41596;BME280;27283;52.504;13.358;2023-03-08T13:20:35;99316.88;;;5.17;54.50
41596;BME280;27283;52.504;13.358;2023-03-08T13:23:24;99318.00;;;4.98;54.68
41596;BME280;27283;52.504;13.358;2023-03-08T13:26:12;99320.19;;;4.86;56.42
41596;BME280;27283;52.504;13.358;2023-03-08T13:28:49;99322.84;;;4.94;56.94
41596;BME280;27283;52.504;13.358;2023-03-08T13:31:22;99319.84;;;4.97;56.77
41596;BME280;27283;52.504;13.358;2023-03-08T13:37:53;99328.13;;;4.78;58.96
41596;BME280;27283;52.504;13.358;2023-03-08T13:40:28;99323.34;;;4.90;57.11
41596;BME280;27283;52.504;13.358;2023-03-08T13:43:02;99323.97;;;4.67;58.83
41596;BME280;27283;52.504;13.358;2023-03-08T13:45:39;99321.47;;;4.66;59.91
41596;BME280;27283;52.504;13.358;2023-03-08T13:48:13;99312.97;;;4.62;61.99
41596;BME280;27283;52.504;13.358;2023-03-08T13:50:47;99320.53;;;4.40;65.26
41596;BME280;27283;52.504;13.358;2023-03-08T13:53:23;99320.63;;;4.22;68.05
41596;BME280;27283;52.504;13.358;2023-03-08T13:56:01;99321.09;;;4.10;70.61
41596;BME280;27283;52.504;13.358;2023-03-08T13:58:38;99324.25;;;4.05;71.28
41596;BME280;27283;52.504;13.358;2023-03-08T14:01:18;99334.66;;;3.98;72.11
41596;BME280;27283;52.504;13.358;2023-03-08T14:03:52;99327.50;;;3.64;75.74
41596;BME280;27283;52.504;13.358;2023-03-08T14:06:27;99324.31;;;3.87;73.40
41596;BME280;27283;52.504;13.358;2023-03-08T14:09:02;99324.81;;;3.90;72.20
41596;BME280;27283;52.504;13.358;2023-03-08T14:11:37;99337.94;;;3.92;72.96
41596;BME280;27283;52.504;13.358;2023-03-08T14:14:17;99330.88;;;3.75;71.23
41596;BME280;27283;52.504;13.358;2023-03-08T14:16:54;99324.84;;;3.64;72.76
41596;BME280;27283;52.504;13.358;2023-03-08T14:19:29;99326.47;;;3.65;74.00
41596;BME280;27283;52.504;13.358;2023-03-08T14:22:03;99320.31;;;3.57;76.19
41596;BME280;27283;52.504;13.358;2023-03-08T14:24:49;99324.22;;;3.44;77.94
41596;BME280;27283;52.504;13.358;2023-03-08T14:27:37;99316.63;;;3.31;79.90
41596;BME280;27283;52.504;13.358;2023-03-08T14:30:14;99317.13;;;3.35;80.66
41596;BME280;27283;52.504;13.358;2023-03-08T14:33:01;99307.38;;;3.17;82.94
41596;BME280;27283;52.504;13.358;2023-03-08T14:35:37;99307.38;;;3.17;83.84
41596;BME280;27283;52.504;13.358;2023-03-08T14:38:19;99310.13;;;3.08;84.81
41596;BME280;27283;52.504;13.358;2023-03-08T14:40:54;99304.97;;;3.06;85.63
41596;BME280;27283;52.504;13.358;2023-03-08T14:43:29;99302.47;;;2.87;87.04
41596;BME280;27283;52.504;13.358;2023-03-08T14:46:06;99299.75;;;2.78;88.88
41596;BME280;27283;52.504;13.358;2023-03-08T14:48:42;99296.41;;;2.76;87.34
41596;BME280;27283;52.504;13.358;2023-03-08T14:51:26;99290.84;;;2.70;87.78
41596;BME280;27283;52.504;13.358;2023-03-08T14:54:02;99290.31;;;2.48;88.36
41596;BME280;27283;52.504;13.358;2023-03-08T14:56:34;99292.97;;;2.48;88.83
41596;BME280;27283;52.504;13.358;2023-03-08T14:59:05;99290.78;;;2.43;89.84
41596;BME280;27283;52.504;13.358;2023-03-08T15:01:54;99287.09;;;2.44;91.16
41596;BME280;27283;52.504;13.358;2023-03-08T15:04:29;99282.06;;;2.51;92.15
41596;BME280;27283;52.504;13.358;2023-03-08T15:07:03;99288.50;;;2.48;91.84
41596;BME280;27283;52.504;13.358;2023-03-08T15:09:35;99294.41;;;2.60;90.71
41596;BME280;27283;52.504;13.358;2023-03-08T15:12:08;99291.13;;;2.48;90.45
41596;BME280;27283;52.504;13.358;2023-03-08T15:14:41;99287.09;;;2.44;90.73
41596;BME280;27283;52.504;13.358;2023-03-08T15:17:14;99276.72;;;2.33;91.10
41596;BME280;27283;52.504;13.358;2023-03-08T15:19:48;99277.31;;;2.27;91.79
41596;BME280;27283;52.504;13.358;2023-03-08T15:22:21;99272.91;;;2.18;90.98